sensor_id;sensor_type;location;lat;lon;timestamp;P1;durP1;ratioP1;P2;durP2;ratioP2
36327;SDS011;22354;50.012;8.264;2022-07-23T00:00:59;5.70;;;4.23;;
36327;SDS011;22354;50.012;8.264;2022-07-23T00:03:25;7.07;;;4.20;;
36327;SDS011;22354;50.012;8.264;2022-07-23T00:05:50;7.67;;;4.30;;
36327;SDS011;22354;50.012;8.264;2022-07-23T00:08:15;5.17;;;3.90;;
36327;SDS011;22354;50.012;8.264;2022-07-23T00:10:41;6.67;;;4.23;;
36327;SDS011;22354;50.012;8.264;2022-07-23T00:13:06;4.57;;;3.90;;
36327;SDS011;22354;50.012;8.264;2022-07-23T00:15:31;7.53;;;4.63;;
36327;SDS011;22354;50.012;8.264;2022-07-23T00:17:57;10.90;;;4.30;;
36327;SDS011;22354;50.012;8.264;2022-07-23T00:20:22;6.77;;;4.43;;
36327;SDS011;22354;50.012;8.264;2022-07-23T00:22:48;7.87;;;3.90;;
36327;SDS011;22354;50.012;8.264;2022-07-23T00:25:15;8.65;;;4.30;;
36327;SDS011;22354;50.012;8.264;2022-07-23T00:27:40;8.07;;;4.80;;
36327;SDS011;22354;50.012;8.264;2022-07-23T00:30:06;7.23;;;4.57;;
36327;SDS011;22354;50.012;8.264;2022-07-23T00:32:32;9.98;;;4.45;;
36327;SDS011;22354;50.012;8.264;2022-07-23T00:34:57;7.93;;;4.40;;
36327;SDS011;22354;50.012;8.264;2022-07-23T00:37:22;6.63;;;4.20;;
36327;SDS011;22354;50.012;8.264;2022-07-23T00:39:47;5.70;;;4.07;;
36327;SDS011;22354;50.012;8.264;2022-07-23T00:42:13;7.50;;;4.43;;
36327;SDS011;22354;50.012;8.264;2022-07-23T00:44:38;5.47;;;4.20;;
36327;SDS011;22354;50.012;8.264;2022-07-23T00:47:03;7.57;;;4.63;;
36327;SDS011;22354;50.012;8.264;2022-07-23T00:49:30;6.07;;;4.17;;
36327;SDS011;22354;50.012;8.264;2022-07-23T00:51:56;6.35;;;4.78;;
36327;SDS011;22354;50.012;8.264;2022-07-23T00:54:26;6.32;;;4.80;;
36327;SDS011;22354;50.012;8.264;2022-07-23T00:56:52;6.10;;;4.30;;
36327;SDS011;22354;50.012;8.264;2022-07-23T00:59:18;6.22;;;4.25;;
36327;SDS011;22354;50.012;8.264;2022-07-23T01:01:43;7.77;;;4.60;;
36327;SDS011;22354;50.012;8.264;2022-07-23T01:04:10;6.00;;;4.38;;
36327;SDS011;22354;50.012;8.264;2022-07-23T01:06:37;6.85;;;4.43;;
36327;SDS011;22354;50.012;8.264;2022-07-23T01:09:04;7.43;;;4.43;;
36327;SDS011;22354;50.012;8.264;2022-07-23T01:11:31;7.53;;;4.93;;
36327;SDS011;22354;50.012;8.264;2022-07-23T01:13:58;6.60;;;4.18;;
36327;SDS011;22354;50.012;8.264;2022-07-23T01:16:23;9.30;;;5.37;;
36327;SDS011;22354;50.012;8.264;2022-07-23T01:18:48;7.60;;;5.10;;
36327;SDS011;22354;50.012;8.264;2022-07-23T01:21:13;8.25;;;5.30;;
36327;SDS011;22354;50.012;8.264;2022-07-23T01:23:42;7.90;;;4.65;;
36327;SDS011;22354;50.012;8.264;2022-07-23T01:26:08;8.90;;;5.10;;
36327;SDS011;22354;50.012;8.264;2022-07-23T01:28:33;11.33;;;5.13;;
36327;SDS011;22354;50.012;8.264;2022-07-23T01:30:58;6.70;;;5.10;;
36327;SDS011;22354;50.012;8.264;2022-07-23T01:33:23;8.83;;;5.07;;
36327;SDS011;22354;50.012;8.264;2022-07-23T01:35:49;9.40;;;5.07;;
36327;SDS011;22354;50.012;8.264;2022-07-23T01:38:14;7.83;;;5.40;;
36327;SDS011;22354;50.012;8.264;2022-07-23T01:40:39;9.33;;;5.90;;
36327;SDS011;22354;50.012;8.264;2022-07-23T01:43:04;10.80;;;5.60;;
36327;SDS011;22354;50.012;8.264;2022-07-23T01:45:30;10.97;;;5.97;;
36327;SDS011;22354;50.012;8.264;2022-07-23T01:47:55;8.03;;;5.30;;
36327;SDS011;22354;50.012;8.264;2022-07-23T01:50:20;8.50;;;5.50;;
36327;SDS011;22354;50.012;8.264;2022-07-23T01:52:46;9.23;;;5.80;;
36327;SDS011;22354;50.012;8.264;2022-07-23T01:55:11;10.17;;;5.53;;
36327;SDS011;22354;50.012;8.264;2022-07-23T01:57:36;7.13;;;5.40;;
36327;SDS011;22354;50.012;8.264;2022-07-23T02:00:02;7.20;;;5.73;;
36327;SDS011;22354;50.012;8.264;2022-07-23T02:02:28;6.65;;;5.13;;
36327;SDS011;22354;50.012;8.264;2022-07-23T02:04:53;9.90;;;5.30;;
36327;SDS011;22354;50.012;8.264;2022-07-23T02:07:18;8.10;;;5.70;;
36327;SDS011;22354;50.012;8.264;2022-07-23T02:09:44;7.30;;;5.60;;
36327;SDS011;22354;50.012;8.264;2022-07-23T02:12:09;8.83;;;5.90;;
36327;SDS011;22354;50.012;8.264;2022-07-23T02:14:34;10.32;;;5.78;;
36327;SDS011;22354;50.012;8.264;2022-07-23T02:16:59;12.33;;;5.87;;
36327;SDS011;22354;50.012;8.264;2022-07-23T02:19:25;10.00;;;5.47;;
36327;SDS011;22354;50.012;8.264;2022-07-23T02:21:51;8.93;;;6.03;;
36327;SDS011;22354;50.012;8.264;2022-07-23T02:24:16;9.73;;;5.80;;
36327;SDS011;22354;50.012;8.264;2022-07-23T02:26:41;10.20;;;6.27;;
36327;SDS011;22354;50.012;8.264;2022-07-23T02:29:07;7.75;;;5.38;;
36327;SDS011;22354;50.012;8.264;2022-07-23T02:31:33;9.30;;;5.88;;
36327;SDS011;22354;50.012;8.264;2022-07-23T02:33:58;10.77;;;5.95;;
36327;SDS011;22354;50.012;8.264;2022-07-23T02:36:24;7.83;;;5.97;;
36327;SDS011;22354;50.012;8.264;2022-07-23T02:38:49;8.00;;;5.57;;
36327;SDS011;22354;50.012;8.264;2022-07-23T02:41:14;8.23;;;5.93;;
36327;SDS011;22354;50.012;8.264;2022-07-23T02:43:40;7.93;;;5.27;;
36327;SDS011;22354;50.012;8.264;2022-07-23T02:46:05;8.20;;;5.87;;
36327;SDS011;22354;50.012;8.264;2022-07-23T02:48:30;9.20;;;6.20;;
36327;SDS011;22354;50.012;8.264;2022-07-23T02:50:56;9.07;;;6.30;;
36327;SDS011;22354;50.012;8.264;2022-07-23T02:53:22;9.15;;;6.03;;
36327;SDS011;22354;50.012;8.264;2022-07-23T02:55:50;9.73;;;5.87;;
36327;SDS011;22354;50.012;8.264;2022-07-23T02:58:16;9.60;;;5.75;;
36327;SDS011;22354;50.012;8.264;2022-07-23T03:00:41;10.33;;;6.00;;
36327;SDS011;22354;50.012;8.264;2022-07-23T03:03:06;8.80;;;5.93;;
36327;SDS011;22354;50.012;8.264;2022-07-23T03:05:32;10.32;;;6.13;;
36327;SDS011;22354;50.012;8.264;2022-07-23T03:07:58;8.82;;;5.93;;
36327;SDS011;22354;50.012;8.264;2022-07-23T03:10:23;7.55;;;5.70;;
36327;SDS011;22354;50.012;8.264;2022-07-23T03:12:48;9.83;;;6.50;;
36327;SDS011;22354;50.012;8.264;2022-07-23T03:15:14;9.33;;;5.80;;
36327;SDS011;22354;50.012;8.264;2022-07-23T03:17:39;9.77;;;5.77;;
36327;SDS011;22354;50.012;8.264;2022-07-23T03:20:04;11.47;;;6.03;;
36327;SDS011;22354;50.012;8.264;2022-07-23T03:22:30;9.55;;;5.28;;
36327;SDS011;22354;50.012;8.264;2022-07-23T03:24:56;10.30;;;6.03;;
36327;SDS011;22354;50.012;8.264;2022-07-23T03:27:22;9.63;;;5.30;;
36327;SDS011;22354;50.012;8.264;2022-07-23T03:29:48;7.43;;;5.32;;
36327;SDS011;22354;50.012;8.264;2022-07-23T03:32:14;6.18;;;5.20;;
36327;SDS011;22354;50.012;8.264;2022-07-23T03:34:40;7.60;;;5.20;;
36327;SDS011;22354;50.012;8.264;2022-07-23T03:37:06;8.00;;;6.20;;
36327;SDS011;22354;50.012;8.264;2022-07-23T03:39:31;8.00;;;5.63;;
36327;SDS011;22354;50.012;8.264;2022-07-23T03:41:56;9.83;;;6.10;;
36327;SDS011;22354;50.012;8.264;2022-07-23T03:44:22;9.60;;;6.03;;
36327;SDS011;22354;50.012;8.264;2022-07-23T03:46:47;10.47;;;6.27;;
36327;SDS011;22354;50.012;8.264;2022-07-23T03:49:12;8.33;;;6.30;;
36327;SDS011;22354;50.012;8.264;2022-07-23T03:51:38;6.97;;;5.50;;
36327;SDS011;22354;50.012;8.264;2022-07-23T03:54:03;9.50;;;6.37;;
36327;SDS011;22354;50.012;8.264;2022-07-23T03:56:28;9.33;;;6.40;;
36327;SDS011;22354;50.012;8.264;2022-07-23T03:58:54;9.27;;;5.90;;
36327;SDS011;22354;50.012;8.264;2022-07-23T04:01:19;9.23;;;6.43;;
36327;SDS011;22354;50.012;8.264;2022-07-23T04:03:44;11.10;;;6.33;;
36327;SDS011;22354;50.012;8.264;2022-07-23T04:06:11;9.40;;;5.85;;
36327;SDS011;22354;50.012;8.264;2022-07-23T04:08:38;7.97;;;5.70;;
36327;SDS011;22354;50.012;8.264;2022-07-23T04:11:03;9.60;;;6.20;;
36327;SDS011;22354;50.012;8.264;2022-07-23T04:13:29;9.50;;;6.27;;
36327;SDS011;22354;50.012;8.264;2022-07-23T04:15:54;8.87;;;5.93;;
36327;SDS011;22354;50.012;8.264;2022-07-23T04:18:19;13.73;;;6.40;;
36327;SDS011;22354;50.012;8.264;2022-07-23T04:20:46;11.70;;;6.87;;
36327;SDS011;22354;50.012;8.264;2022-07-23T04:23:12;9.07;;;6.30;;
36327;SDS011;22354;50.012;8.264;2022-07-23T04:25:37;9.80;;;6.60;;
36327;SDS011;22354;50.012;8.264;2022-07-23T04:28:03;11.30;;;6.87;;
36327;SDS011;22354;50.012;8.264;2022-07-23T04:30:29;11.15;;;6.80;;
36327;SDS011;22354;50.012;8.264;2022-07-23T04:32:54;9.93;;;6.93;;
36327;SDS011;22354;50.012;8.264;2022-07-23T04:35:19;10.13;;;7.10;;
36327;SDS011;22354;50.012;8.264;2022-07-23T04:37:45;11.37;;;7.50;;
36327;SDS011;22354;50.012;8.264;2022-07-23T04:40:11;10.57;;;7.30;;
36327;SDS011;22354;50.012;8.264;2022-07-23T04:42:37;11.50;;;7.57;;
36327;SDS011;22354;50.012;8.264;2022-07-23T04:45:02;14.80;;;7.87;;
36327;SDS011;22354;50.012;8.264;2022-07-23T04:47:28;10.65;;;7.20;;
36327;SDS011;22354;50.012;8.264;2022-07-23T04:49:54;11.75;;;7.60;;
36327;SDS011;22354;50.012;8.264;2022-07-23T04:52:19;9.10;;;7.47;;
36327;SDS011;22354;50.012;8.264;2022-07-23T04:54:46;11.37;;;7.60;;
36327;SDS011;22354;50.012;8.264;2022-07-23T04:57:12;9.10;;;7.33;;
36327;SDS011;22354;50.012;8.264;2022-07-23T04:59:37;12.17;;;7.93;;
36327;SDS011;22354;50.012;8.264;2022-07-23T05:02:02;14.00;;;7.70;;
36327;SDS011;22354;50.012;8.264;2022-07-23T05:04:27;11.20;;;6.87;;
36327;SDS011;22354;50.012;8.264;2022-07-23T05:06:53;13.83;;;7.93;;
36327;SDS011;22354;50.012;8.264;2022-07-23T05:09:18;11.03;;;7.83;;
36327;SDS011;22354;50.012;8.264;2022-07-23T05:11:43;12.47;;;7.63;;
36327;SDS011;22354;50.012;8.264;2022-07-23T05:14:08;12.07;;;8.07;;
36327;SDS011;22354;50.012;8.264;2022-07-23T05:16:37;13.32;;;8.23;;
36327;SDS011;22354;50.012;8.264;2022-07-23T05:19:02;10.93;;;7.50;;
36327;SDS011;22354;50.012;8.264;2022-07-23T05:21:27;15.90;;;8.70;;
36327;SDS011;22354;50.012;8.264;2022-07-23T05:23:52;15.67;;;9.80;;
36327;SDS011;22354;50.012;8.264;2022-07-23T05:26:18;12.60;;;8.40;;
36327;SDS011;22354;50.012;8.264;2022-07-23T05:28:43;12.47;;;8.97;;
36327;SDS011;22354;50.012;8.264;2022-07-23T05:31:08;17.20;;;9.40;;
36327;SDS011;22354;50.012;8.264;2022-07-23T05:33:33;12.30;;;8.20;;
36327;SDS011;22354;50.012;8.264;2022-07-23T05:36:02;15.37;;;8.40;;
36327;SDS011;22354;50.012;8.264;2022-07-23T05:38:29;13.40;;;8.55;;
36327;SDS011;22354;50.012;8.264;2022-07-23T05:40:55;12.77;;;8.37;;
36327;SDS011;22354;50.012;8.264;2022-07-23T05:43:20;13.80;;;8.40;;
36327;SDS011;22354;50.012;8.264;2022-07-23T05:45:46;13.93;;;8.63;;
36327;SDS011;22354;50.012;8.264;2022-07-23T05:48:11;12.63;;;7.93;;
36327;SDS011;22354;50.012;8.264;2022-07-23T05:50:36;11.10;;;8.60;;
36327;SDS011;22354;50.012;8.264;2022-07-23T05:53:01;15.80;;;8.37;;
36327;SDS011;22354;50.012;8.264;2022-07-23T05:55:27;13.80;;;8.37;;
36327;SDS011;22354;50.012;8.264;2022-07-23T05:57:54;11.80;;;8.40;;
36327;SDS011;22354;50.012;8.264;2022-07-23T06:00:20;12.02;;;8.23;;
36327;SDS011;22354;50.012;8.264;2022-07-23T06:02:45;10.67;;;7.77;;
36327;SDS011;22354;50.012;8.264;2022-07-23T06:05:11;10.67;;;7.57;;
36327;SDS011;22354;50.012;8.264;2022-07-23T06:07:36;12.83;;;7.77;;
36327;SDS011;22354;50.012;8.264;2022-07-23T06:10:01;13.20;;;7.97;;
36327;SDS011;22354;50.012;8.264;2022-07-23T06:12:27;10.02;;;7.43;;
36327;SDS011;22354;50.012;8.264;2022-07-23T06:14:53;9.98;;;6.82;;
36327;SDS011;22354;50.012;8.264;2022-07-23T06:17:18;10.18;;;6.78;;
36327;SDS011;22354;50.012;8.264;2022-07-23T06:19:43;11.82;;;7.30;;
36327;SDS011;22354;50.012;8.264;2022-07-23T06:22:09;11.90;;;7.30;;
36327;SDS011;22354;50.012;8.264;2022-07-23T06:24:34;11.27;;;7.00;;
36327;SDS011;22354;50.012;8.264;2022-07-23T06:26:59;10.47;;;6.83;;
36327;SDS011;22354;50.012;8.264;2022-07-23T06:29:25;9.40;;;7.17;;
36327;SDS011;22354;50.012;8.264;2022-07-23T06:31:50;11.07;;;7.20;;
36327;SDS011;22354;50.012;8.264;2022-07-23T06:34:15;11.30;;;7.07;;
36327;SDS011;22354;50.012;8.264;2022-07-23T06:36:41;9.20;;;6.47;;
36327;SDS011;22354;50.012;8.264;2022-07-23T06:39:06;8.23;;;6.33;;
36327;SDS011;22354;50.012;8.264;2022-07-23T06:41:31;9.10;;;6.37;;
36327;SDS011;22354;50.012;8.264;2022-07-23T06:43:56;10.30;;;5.90;;
36327;SDS011;22354;50.012;8.264;2022-07-23T06:46:22;10.10;;;6.43;;
36327;SDS011;22354;50.012;8.264;2022-07-23T06:48:47;8.50;;;6.13;;
36327;SDS011;22354;50.012;8.264;2022-07-23T06:51:12;10.20;;;6.00;;
36327;SDS011;22354;50.012;8.264;2022-07-23T06:53:38;9.40;;;6.30;;
36327;SDS011;22354;50.012;8.264;2022-07-23T06:56:03;9.48;;;5.95;;
36327;SDS011;22354;50.012;8.264;2022-07-23T06:58:29;13.98;;;6.10;;
36327;SDS011;22354;50.012;8.264;2022-07-23T07:00:54;12.30;;;6.23;;
36327;SDS011;22354;50.012;8.264;2022-07-23T07:03:21;8.55;;;6.28;;
36327;SDS011;22354;50.012;8.264;2022-07-23T07:05:47;8.07;;;5.57;;
36327;SDS011;22354;50.012;8.264;2022-07-23T07:08:12;9.33;;;6.43;;
36327;SDS011;22354;50.012;8.264;2022-07-23T07:10:37;8.83;;;6.10;;
36327;SDS011;22354;50.012;8.264;2022-07-23T07:13:03;8.30;;;5.83;;
36327;SDS011;22354;50.012;8.264;2022-07-23T07:15:28;8.60;;;5.87;;
36327;SDS011;22354;50.012;8.264;2022-07-23T07:17:53;8.00;;;6.00;;
36327;SDS011;22354;50.012;8.264;2022-07-23T07:20:18;10.40;;;6.27;;
36327;SDS011;22354;50.012;8.264;2022-07-23T07:22:44;13.53;;;5.90;;
36327;SDS011;22354;50.012;8.264;2022-07-23T07:25:09;8.47;;;6.07;;
36327;SDS011;22354;50.012;8.264;2022-07-23T07:27:34;12.30;;;5.90;;
36327;SDS011;22354;50.012;8.264;2022-07-23T07:29:59;9.20;;;6.00;;
36327;SDS011;22354;50.012;8.264;2022-07-23T07:32:25;8.10;;;6.22;;
36327;SDS011;22354;50.012;8.264;2022-07-23T07:34:50;7.90;;;5.97;;
36327;SDS011;22354;50.012;8.264;2022-07-23T07:37:16;9.00;;;6.50;;
36327;SDS011;22354;50.012;8.264;2022-07-23T07:39:41;10.17;;;5.87;;
36327;SDS011;22354;50.012;8.264;2022-07-23T07:42:06;9.00;;;6.10;;
36327;SDS011;22354;50.012;8.264;2022-07-23T07:44:31;7.90;;;5.70;;
36327;SDS011;22354;50.012;8.264;2022-07-23T07:46:57;9.03;;;6.50;;
36327;SDS011;22354;50.012;8.264;2022-07-23T07:49:22;8.07;;;6.13;;
36327;SDS011;22354;50.012;8.264;2022-07-23T07:51:48;10.13;;;5.78;;
36327;SDS011;22354;50.012;8.264;2022-07-23T07:54:14;11.60;;;6.20;;
36327;SDS011;22354;50.012;8.264;2022-07-23T07:56:39;7.87;;;5.73;;
36327;SDS011;22354;50.012;8.264;2022-07-23T07:59:04;8.83;;;6.33;;
36327;SDS011;22354;50.012;8.264;2022-07-23T08:01:29;9.77;;;5.60;;
36327;SDS011;22354;50.012;8.264;2022-07-23T08:03:55;13.03;;;6.37;;
36327;SDS011;22354;50.012;8.264;2022-07-23T08:06:20;9.37;;;6.57;;
36327;SDS011;22354;50.012;8.264;2022-07-23T08:08:46;8.67;;;5.60;;
36327;SDS011;22354;50.012;8.264;2022-07-23T08:11:11;9.47;;;6.10;;
36327;SDS011;22354;50.012;8.264;2022-07-23T08:13:36;8.97;;;5.87;;
36327;SDS011;22354;50.012;8.264;2022-07-23T08:16:02;8.67;;;5.87;;
36327;SDS011;22354;50.012;8.264;2022-07-23T08:18:27;13.80;;;6.20;;
36327;SDS011;22354;50.012;8.264;2022-07-23T08:20:52;9.07;;;5.60;;
36327;SDS011;22354;50.012;8.264;2022-07-23T08:23:18;10.97;;;5.83;;
36327;SDS011;22354;50.012;8.264;2022-07-23T08:25:44;8.30;;;5.93;;
36327;SDS011;22354;50.012;8.264;2022-07-23T08:28:11;8.43;;;5.93;;
36327;SDS011;22354;50.012;8.264;2022-07-23T08:30:38;10.97;;;6.33;;
36327;SDS011;22354;50.012;8.264;2022-07-23T08:33:06;12.35;;;5.90;;
36327;SDS011;22354;50.012;8.264;2022-07-23T08:35:40;8.70;;;5.80;;
36327;SDS011;22354;50.012;8.264;2022-07-23T08:38:08;10.00;;;6.07;;
36327;SDS011;22354;50.012;8.264;2022-07-23T08:40:36;12.85;;;5.80;;
36327;SDS011;22354;50.012;8.264;2022-07-23T08:43:04;9.45;;;6.03;;
36327;SDS011;22354;50.012;8.264;2022-07-23T08:45:31;10.30;;;6.10;;
36327;SDS011;22354;50.012;8.264;2022-07-23T08:48:01;10.05;;;6.65;;
36327;SDS011;22354;50.012;8.264;2022-07-23T08:50:28;8.60;;;5.82;;
36327;SDS011;22354;50.012;8.264;2022-07-23T08:52:53;7.03;;;5.47;;
36327;SDS011;22354;50.012;8.264;2022-07-23T08:55:19;6.87;;;4.97;;
36327;SDS011;22354;50.012;8.264;2022-07-23T08:57:47;7.30;;;5.05;;
36327;SDS011;22354;50.012;8.264;2022-07-23T09:00:13;6.68;;;5.30;;
36327;SDS011;22354;50.012;8.264;2022-07-23T09:02:40;7.32;;;5.30;;
36327;SDS011;22354;50.012;8.264;2022-07-23T09:05:07;8.63;;;5.18;;
36327;SDS011;22354;50.012;8.264;2022-07-23T09:07:35;7.33;;;5.40;;
36327;SDS011;22354;50.012;8.264;2022-07-23T09:10:08;10.15;;;5.75;;
36327;SDS011;22354;50.012;8.264;2022-07-23T09:12:35;7.20;;;5.30;;
36327;SDS011;22354;50.012;8.264;2022-07-23T09:15:07;11.88;;;5.82;;
36327;SDS011;22354;50.012;8.264;2022-07-23T09:17:40;7.28;;;5.35;;
36327;SDS011;22354;50.012;8.264;2022-07-23T09:20:08;8.48;;;5.35;;
36327;SDS011;22354;50.012;8.264;2022-07-23T09:22:35;7.53;;;5.18;;
36327;SDS011;22354;50.012;8.264;2022-07-23T09:25:04;8.53;;;5.60;;
36327;SDS011;22354;50.012;8.264;2022-07-23T09:30:23;8.50;;;5.70;;
36327;SDS011;22354;50.012;8.264;2022-07-23T09:38:13;10.18;;;5.03;;
36327;SDS011;22354;50.012;8.264;2022-07-23T09:40:39;6.90;;;4.80;;
36327;SDS011;22354;50.012;8.264;2022-07-23T09:43:05;8.57;;;5.10;;
36327;SDS011;22354;50.012;8.264;2022-07-23T09:45:30;8.70;;;5.63;;
36327;SDS011;22354;50.012;8.264;2022-07-23T09:48:11;7.00;;;4.63;;
36327;SDS011;22354;50.012;8.264;2022-07-23T09:50:39;6.45;;;4.97;;
36327;SDS011;22354;50.012;8.264;2022-07-23T09:53:05;7.33;;;5.00;;
36327;SDS011;22354;50.012;8.264;2022-07-23T09:55:31;7.17;;;5.07;;
36327;SDS011;22354;50.012;8.264;2022-07-23T09:58:06;6.85;;;4.38;;
36327;SDS011;22354;50.012;8.264;2022-07-23T10:00:36;8.23;;;4.40;;
36327;SDS011;22354;50.012;8.264;2022-07-23T10:03:02;6.97;;;4.50;;
36327;SDS011;22354;50.012;8.264;2022-07-23T10:05:30;7.57;;;4.97;;
36327;SDS011;22354;50.012;8.264;2022-07-23T10:07:56;7.60;;;4.47;;
36327;SDS011;22354;50.012;8.264;2022-07-23T10:10:22;6.53;;;4.28;;
36327;SDS011;22354;50.012;8.264;2022-07-23T10:12:53;8.60;;;4.80;;
36327;SDS011;22354;50.012;8.264;2022-07-23T10:15:34;9.18;;;4.82;;
36327;SDS011;22354;50.012;8.264;2022-07-23T10:17:59;8.25;;;4.13;;
36327;SDS011;22354;50.012;8.264;2022-07-23T10:20:25;6.50;;;4.43;;
36327;SDS011;22354;50.012;8.264;2022-07-23T10:22:55;8.17;;;4.80;;
36327;SDS011;22354;50.012;8.264;2022-07-23T10:25:32;7.68;;;4.47;;
36327;SDS011;22354;50.012;8.264;2022-07-23T10:31:37;5.90;;;4.90;;
36327;SDS011;22354;50.012;8.264;2022-07-23T10:34:12;6.55;;;4.80;;
36327;SDS011;22354;50.012;8.264;2022-07-23T10:36:47;6.85;;;3.90;;
36327;SDS011;22354;50.012;8.264;2022-07-23T10:39:28;5.25;;;4.35;;
36327;SDS011;22354;50.012;8.264;2022-07-23T10:42:12;5.85;;;4.22;;
36327;SDS011;22354;50.012;8.264;2022-07-23T10:44:48;6.97;;;4.53;;
36327;SDS011;22354;50.012;8.264;2022-07-23T10:47:27;8.10;;;4.30;;
36327;SDS011;22354;50.012;8.264;2022-07-23T10:50:28;7.13;;;4.13;;
36327;SDS011;22354;50.012;8.264;2022-07-23T10:57:56;10.17;;;5.03;;
36327;SDS011;22354;50.012;8.264;2022-07-23T11:00:23;7.33;;;4.43;;
36327;SDS011;22354;50.012;8.264;2022-07-23T11:02:51;8.95;;;4.45;;
36327;SDS011;22354;50.012;8.264;2022-07-23T11:05:22;6.00;;;4.07;;
36327;SDS011;22354;50.012;8.264;2022-07-23T11:24:02;5.20;;;3.65;;
36327;SDS011;22354;50.012;8.264;2022-07-23T11:36:58;6.95;;;4.03;;
36327;SDS011;22354;50.012;8.264;2022-07-23T11:39:25;6.38;;;3.80;;
36327;SDS011;22354;50.012;8.264;2022-07-23T11:41:53;6.63;;;3.88;;
36327;SDS011;22354;50.012;8.264;2022-07-23T11:44:25;6.45;;;4.00;;
36327;SDS011;22354;50.012;8.264;2022-07-23T11:46:58;6.45;;;3.85;;
36327;SDS011;22354;50.012;8.264;2022-07-23T11:49:25;4.97;;;3.53;;
36327;SDS011;22354;50.012;8.264;2022-07-23T11:52:07;4.30;;;3.45;;
36327;SDS011;22354;50.012;8.264;2022-07-23T11:57:12;5.28;;;3.65;;
36327;SDS011;22354;50.012;8.264;2022-07-23T11:59:38;3.97;;;3.33;;
36327;SDS011;22354;50.012;8.264;2022-07-23T12:02:04;6.40;;;3.92;;
36327;SDS011;22354;50.012;8.264;2022-07-23T12:04:43;5.53;;;3.67;;
36327;SDS011;22354;50.012;8.264;2022-07-23T12:07:30;5.22;;;3.78;;
36327;SDS011;22354;50.012;8.264;2022-07-23T12:09:58;4.53;;;3.60;;
36327;SDS011;22354;50.012;8.264;2022-07-23T12:12:45;4.70;;;3.90;;
36327;SDS011;22354;50.012;8.264;2022-07-23T12:15:14;4.05;;;3.20;;
36327;SDS011;22354;50.012;8.264;2022-07-23T12:17:42;5.10;;;3.75;;
36327;SDS011;22354;50.012;8.264;2022-07-23T12:20:10;7.57;;;3.72;;
36327;SDS011;22354;50.012;8.264;2022-07-23T12:22:40;5.03;;;4.07;;
36327;SDS011;22354;50.012;8.264;2022-07-23T12:27:34;5.68;;;3.47;;
36327;SDS011;22354;50.012;8.264;2022-07-23T12:30:14;4.55;;;3.60;;
36327;SDS011;22354;50.012;8.264;2022-07-23T12:32:46;7.20;;;3.63;;
36327;SDS011;22354;50.012;8.264;2022-07-23T12:35:12;4.18;;;3.20;;
36327;SDS011;22354;50.012;8.264;2022-07-23T12:37:39;5.80;;;3.60;;
36327;SDS011;22354;50.012;8.264;2022-07-23T12:42:55;4.15;;;3.33;;
36327;SDS011;22354;50.012;8.264;2022-07-23T12:45:23;13.07;;;4.32;;
36327;SDS011;22354;50.012;8.264;2022-07-23T12:47:59;7.17;;;3.63;;
36327;SDS011;22354;50.012;8.264;2022-07-23T12:50:32;6.70;;;3.33;;
36327;SDS011;22354;50.012;8.264;2022-07-23T12:53:10;5.50;;;3.20;;
36327;SDS011;22354;50.012;8.264;2022-07-23T12:55:38;4.07;;;3.20;;
36327;SDS011;22354;50.012;8.264;2022-07-23T12:58:05;7.10;;;3.55;;
36327;SDS011;22354;50.012;8.264;2022-07-23T13:00:32;6.00;;;3.60;;
36327;SDS011;22354;50.012;8.264;2022-07-23T13:03:54;4.25;;;3.72;;
36327;SDS011;22354;50.012;8.264;2022-07-23T13:06:10;4.22;;;3.40;;
36327;SDS011;22354;50.012;8.264;2022-07-23T13:08:36;7.63;;;3.72;;
36327;SDS011;22354;50.012;8.264;2022-07-23T13:11:03;4.73;;;3.80;;
36327;SDS011;22354;50.012;8.264;2022-07-23T13:13:30;4.70;;;3.80;;
36327;SDS011;22354;50.012;8.264;2022-07-23T13:15:57;8.27;;;4.13;;
36327;SDS011;22354;50.012;8.264;2022-07-23T13:18:24;4.65;;;3.75;;
36327;SDS011;22354;50.012;8.264;2022-07-23T13:20:50;6.15;;;4.25;;
36327;SDS011;22354;50.012;8.264;2022-07-23T13:23:16;4.65;;;3.60;;
36327;SDS011;22354;50.012;8.264;2022-07-23T13:25:42;6.18;;;3.90;;
36327;SDS011;22354;50.012;8.264;2022-07-23T13:28:07;5.45;;;3.92;;
36327;SDS011;22354;50.012;8.264;2022-07-23T13:30:33;4.90;;;3.87;;
36327;SDS011;22354;50.012;8.264;2022-07-23T13:32:58;7.30;;;4.15;;
36327;SDS011;22354;50.012;8.264;2022-07-23T13:35:24;4.22;;;3.60;;
36327;SDS011;22354;50.012;8.264;2022-07-23T13:37:50;6.80;;;4.70;;
36327;SDS011;22354;50.012;8.264;2022-07-23T13:40:15;6.17;;;4.40;;
36327;SDS011;22354;50.012;8.264;2022-07-23T13:42:41;7.47;;;4.22;;
36327;SDS011;22354;50.012;8.264;2022-07-23T13:45:06;4.87;;;3.90;;
36327;SDS011;22354;50.012;8.264;2022-07-23T13:47:32;11.07;;;4.33;;
36327;SDS011;22354;50.012;8.264;2022-07-23T13:49:57;5.97;;;4.33;;
36327;SDS011;22354;50.012;8.264;2022-07-23T13:52:23;7.40;;;4.07;;
36327;SDS011;22354;50.012;8.264;2022-07-23T13:54:49;5.65;;;3.97;;
36327;SDS011;22354;50.012;8.264;2022-07-23T13:57:14;5.28;;;3.95;;
36327;SDS011;22354;50.012;8.264;2022-07-23T13:59:40;6.27;;;4.30;;
36327;SDS011;22354;50.012;8.264;2022-07-23T14:02:05;5.00;;;4.00;;
36327;SDS011;22354;50.012;8.264;2022-07-23T14:04:30;5.07;;;4.07;;
36327;SDS011;22354;50.012;8.264;2022-07-23T14:06:56;6.73;;;4.33;;
36327;SDS011;22354;50.012;8.264;2022-07-23T14:09:22;7.43;;;4.33;;
36327;SDS011;22354;50.012;8.264;2022-07-23T14:11:48;6.40;;;4.25;;
36327;SDS011;22354;50.012;8.264;2022-07-23T14:14:14;6.43;;;4.38;;
36327;SDS011;22354;50.012;8.264;2022-07-23T14:16:40;7.10;;;4.33;;
36327;SDS011;22354;50.012;8.264;2022-07-23T14:19:05;5.80;;;4.50;;
36327;SDS011;22354;50.012;8.264;2022-07-23T14:21:30;7.53;;;4.10;;
36327;SDS011;22354;50.012;8.264;2022-07-23T14:23:56;5.43;;;4.17;;
36327;SDS011;22354;50.012;8.264;2022-07-23T14:26:21;7.20;;;3.60;;
36327;SDS011;22354;50.012;8.264;2022-07-23T14:28:46;5.67;;;3.97;;
36327;SDS011;22354;50.012;8.264;2022-07-23T14:31:11;4.77;;;3.63;;
36327;SDS011;22354;50.012;8.264;2022-07-23T14:33:37;6.00;;;3.90;;
36327;SDS011;22354;50.012;8.264;2022-07-23T14:36:02;8.47;;;3.83;;
36327;SDS011;22354;50.012;8.264;2022-07-23T14:38:28;4.63;;;3.53;;
36327;SDS011;22354;50.012;8.264;2022-07-23T14:40:55;6.55;;;4.00;;
36327;SDS011;22354;50.012;8.264;2022-07-23T14:43:21;4.72;;;3.88;;
36327;SDS011;22354;50.012;8.264;2022-07-23T14:45:46;5.33;;;3.87;;
36327;SDS011;22354;50.012;8.264;2022-07-23T14:48:11;6.90;;;3.90;;
36327;SDS011;22354;50.012;8.264;2022-07-23T14:50:37;7.73;;;3.30;;
36327;SDS011;22354;50.012;8.264;2022-07-23T14:53:02;6.40;;;3.27;;
36327;SDS011;22354;50.012;8.264;2022-07-23T14:55:27;5.67;;;3.33;;
36327;SDS011;22354;50.012;8.264;2022-07-23T14:57:53;7.97;;;3.23;;
36327;SDS011;22354;50.012;8.264;2022-07-23T15:00:18;6.07;;;3.30;;
36327;SDS011;22354;50.012;8.264;2022-07-23T15:02:43;4.30;;;3.23;;
36327;SDS011;22354;50.012;8.264;2022-07-23T15:05:08;3.97;;;3.30;;
36327;SDS011;22354;50.012;8.264;2022-07-23T15:07:34;8.82;;;3.47;;
36327;SDS011;22354;50.012;8.264;2022-07-23T15:09:59;3.90;;;3.22;;
36327;SDS011;22354;50.012;8.264;2022-07-23T15:12:25;4.57;;;3.42;;
36327;SDS011;22354;50.012;8.264;2022-07-23T15:14:50;5.03;;;3.30;;
36327;SDS011;22354;50.012;8.264;2022-07-23T15:17:16;5.53;;;3.28;;
36327;SDS011;22354;50.012;8.264;2022-07-23T15:19:41;3.63;;;2.97;;
36327;SDS011;22354;50.012;8.264;2022-07-23T15:22:06;6.85;;;2.60;;
36327;SDS011;22354;50.012;8.264;2022-07-23T15:24:32;4.20;;;3.10;;
36327;SDS011;22354;50.012;8.264;2022-07-23T15:26:57;4.13;;;3.27;;
36327;SDS011;22354;50.012;8.264;2022-07-23T15:29:23;7.15;;;3.10;;
36327;SDS011;22354;50.012;8.264;2022-07-23T15:31:48;5.43;;;3.33;;